This is the latest recevied weather packets stored in our database for station/object W6KRP-12. If no packets are shown the sender has not sent any weather packets the latest 10 day(s).
| Time | Temp. | Humidity | Pressure | Rain* | Wind** | Luminosity | Snow |
|---|---|---|---|---|---|---|---|
| 1777535406 | 20° C | 92% | 1004.2 hPa | 0 mm | - | - | - |
| 1777533606 | 20° C | 91% | 1004.3 hPa | 0 mm | - | - | - |
| 1777529407 | 20° C | 90% | 1006 hPa | 0 mm | - | - | - |
| 1777528806 | 20.56° C | 90% | 1005.9 hPa | 0 mm | - | - | - |
| 1777528206 | 20.56° C | 90% | 1005.9 hPa | 0 mm | - | - | - |
| 1777527006 | 20.56° C | 89% | 1006.3 hPa | 0 mm | - | - | - |
| 1777522806 | 20.56° C | 89% | 1006.7 hPa | 0 mm | - | - | - |
| 1777520406 | 20.56° C | 88% | 1006.9 hPa | 0 mm | - | - | - |
| 1777519806 | 21.11° C | 88% | 1007 hPa | 0 mm | - | - | - |
| 1777516207 | 21.67° C | 84% | 1007.1 hPa | 0 mm | - | - | - |
| 1777515007 | 21.67° C | 83% | 1007.5 hPa | 0 mm | - | - | - |
| 1777514406 | 21.67° C | 82% | 1007.7 hPa | 0 mm | - | - | - |
| 1777513806 | 21.67° C | 82% | 1007.5 hPa | 0 mm | - | - | - |
| 1777512607 | 21.67° C | 77% | 1006.7 hPa | 0 mm | - | - | - |
| 1777512006 | 21.67° C | 75% | 1006.5 hPa | 0 mm | - | - | - |
| 1777511406 | 22.22° C | 73% | 1006.3 hPa | 0 mm | - | - | - |
| 1777508407 | 23.89° C | 66% | 1006 hPa | 0 mm | - | - | - |
| 1777496406 | 28.33° C | 55% | 1006.5 hPa | 0 mm | - | - | - |
| 1777494606 | 28.89° C | 51% | 1006.9 hPa | 0 mm | - | - | - |
| 1777493406 | 28.89° C | 50% | 1007 hPa | 0 mm | - | - | - |
| 1777491006 | 28.33° C | 53% | 1007.8 hPa | 0 mm | - | - | - |
| 1777490407 | 28.89° C | 51% | 1008 hPa | 0 mm | - | - | - |
| 1777487407 | 28.89° C | 53% | 1008.9 hPa | 0 mm | - | - | - |
| 1777480807 | 24.44° C | 72% | 1010.5 hPa | 0 mm | - | - | - |
| 1777477207 | 22.78° C | 79% | 1011.6 hPa | 0 mm | - | - | - |
* Rain latest hour (hover to see other rain measurements)
** Current wind speed in m/s (hover to see current wind gust speed)